Time,TemperatureF,DewpointF,PressureIn,WindDirection,WindDirectionDegrees,WindSpeedMPH,WindSpeedGustMPH,Humidity,HourlyPrecipIn,Conditions,Clouds,dailyrainin,SolarRadiationWatts/m^2,SoftwareType,DateUTC
2013-05-08 00:02:00,66.0,59.0,-100.00,WNW,294,4.0,-999.0,78,0.00,,,-99.99,0.000000,,2013-05-08 04:02:00,
2013-05-08 00:13:00,66.0,59.0,-100.00,WNW,296,4.0,-999.0,78,0.00,,,-99.99,0.000000,,2013-05-08 04:13:00,
2013-05-08 00:23:00,66.0,59.0,-100.00,WNW,296,4.0,-999.0,78,0.00,,,-99.99,0.000000,,2013-05-08 04:23:00,
2013-05-08 00:33:00,66.0,59.0,-100.00,WNW,293,3.0,-999.0,79,0.00,,,-99.99,0.000000,,2013-05-08 04:33:00,
2013-05-08 00:43:00,66.0,60.0,-100.00,WNW,288,3.0,-999.0,80,0.00,,,-99.99,0.000000,,2013-05-08 04:43:00,
2013-05-08 00:53:00,66.0,60.0,-100.00,WNW,288,3.0,-999.0,80,0.00,,,-99.99,0.000000,,2013-05-08 04:53:00,
2013-05-08 01:02:00,66.0,60.0,-100.00,WNW,291,2.0,-999.0,81,0.00,,,-99.99,0.000000,,2013-05-08 05:02:00,
2013-05-08 01:12:00,64.0,59.0,-100.00,WNW,285,1.0,-999.0,83,0.00,,,-99.99,0.000000,,2013-05-08 05:12:00,
2013-05-08 01:22:00,64.0,59.0,-100.00,WNW,285,1.0,-999.0,83,0.00,,,-99.99,0.000000,,2013-05-08 05:22:00,
2013-05-08 01:32:00,63.0,59.0,-100.00,WSW,252,1.0,-999.0,85,0.00,,,-99.99,0.000000,,2013-05-08 05:32:00,
2013-05-08 01:42:00,63.0,59.0,-100.00,WSW,256,2.0,-999.0,87,0.00,,,-99.99,0.000000,,2013-05-08 05:42:00,
2013-05-08 01:52:00,63.0,59.0,-100.00,WSW,256,2.0,-999.0,87,0.00,,,-99.99,0.000000,,2013-05-08 05:52:00,
2013-05-08 02:01:00,64.0,60.0,-100.00,West,264,2.0,-999.0,86,0.00,,,-99.99,0.000000,,2013-05-08 06:01:00,
2013-05-08 02:12:00,64.0,60.0,-100.00,WSW,258,2.0,-999.0,85,0.00,,,-99.99,0.000000,,2013-05-08 06:12:00,
2013-05-08 02:21:00,64.0,60.0,-100.00,WSW,258,2.0,-999.0,85,0.00,,,-99.99,0.000000,,2013-05-08 06:21:00,
2013-05-08 02:32:00,64.0,60.0,-100.00,WSW,246,2.0,-999.0,86,0.00,,,-99.99,0.000000,,2013-05-08 06:32:00,
2013-05-08 02:42:00,64.0,60.0,-100.00,WSW,258,2.0,-999.0,87,0.00,,,-99.99,0.000000,,2013-05-08 06:42:00,
2013-05-08 02:52:00,64.0,60.0,-100.00,WSW,258,2.0,-999.0,87,0.00,,,-99.99,0.000000,,2013-05-08 06:52:00,
2013-05-08 03:02:00,65.0,60.0,-100.00,West,265,2.0,-999.0,86,0.00,,,-99.99,0.000000,,2013-05-08 07:02:00,
2013-05-08 03:11:00,65.0,61.0,-100.00,West,270,3.0,-999.0,85,0.00,,,-99.99,0.000000,,2013-05-08 07:11:00,
2013-05-08 03:21:00,65.0,61.0,-100.00,West,270,3.0,-999.0,85,0.00,,,-99.99,0.000000,,2013-05-08 07:21:00,
2013-05-08 03:32:00,65.0,61.0,-100.00,West,280,3.0,-999.0,85,0.00,,,-99.99,0.000000,,2013-05-08 07:32:00,
2013-05-08 03:42:00,65.0,61.0,-100.00,WNW,286,3.0,-999.0,87,0.00,,,-99.99,0.000000,,2013-05-08 07:42:00,
2013-05-08 03:52:00,65.0,61.0,-100.00,WNW,286,3.0,-999.0,87,0.00,,,-99.99,0.000000,,2013-05-08 07:52:00,
2013-05-08 04:02:00,64.0,61.0,-100.00,WNW,299,3.0,-999.0,87,0.00,,,-99.99,0.000000,,2013-05-08 08:02:00,
2013-05-08 04:12:00,63.0,60.0,-100.00,WNW,302,3.0,-999.0,89,0.00,,,-99.99,0.000000,,2013-05-08 08:12:00,
2013-05-08 04:21:00,63.0,60.0,-100.00,WNW,302,3.0,-999.0,89,0.00,,,-99.99,0.000000,,2013-05-08 08:21:00,
2013-05-08 04:32:00,63.0,60.0,-100.00,WNW,293,2.0,-999.0,89,0.00,,,-99.99,0.000000,,2013-05-08 08:32:00,
2013-05-08 04:42:00,63.0,60.0,-100.00,WNW,295,3.0,-999.0,90,0.00,,,-99.99,0.000000,,2013-05-08 08:42:00,
2013-05-08 04:52:00,63.0,60.0,-100.00,WNW,295,3.0,-999.0,90,0.00,,,-99.99,0.000000,,2013-05-08 08:52:00,
2013-05-08 05:02:00,63.0,60.0,-100.00,WNW,292,3.0,-999.0,89,0.00,,,-99.99,0.000000,,2013-05-08 09:02:00,
2013-05-08 05:11:00,63.0,60.0,-100.00,WNW,302,2.0,-999.0,90,0.00,,,-99.99,0.000000,,2013-05-08 09:11:00,
2013-05-08 05:21:00,63.0,60.0,-100.00,WNW,302,2.0,-999.0,90,0.00,,,-99.99,0.000000,,2013-05-08 09:21:00,
2013-05-08 05:32:00,63.0,60.0,-100.00,WNW,285,2.0,-999.0,90,0.00,,,-99.99,0.000000,,2013-05-08 09:32:00,
2013-05-08 05:42:00,62.0,60.0,-100.00,West,267,1.0,-999.0,90,0.00,,,-99.99,0.000000,,2013-05-08 09:42:00,
2013-05-08 05:53:00,62.0,60.0,-100.00,West,267,1.0,-999.0,90,0.00,,,-99.99,0.000000,,2013-05-08 09:53:00,
2013-05-08 06:02:00,62.0,59.0,-100.00,WSW,258,1.0,-999.0,90,0.00,,,-99.99,0.000000,,2013-05-08 10:02:00,
2013-05-08 06:12:00,61.0,59.0,-100.00,WNW,282,2.0,-999.0,92,0.00,,,-99.99,0.000000,,2013-05-08 10:12:00,
2013-05-08 06:22:00,61.0,59.0,-100.00,WNW,282,2.0,-999.0,92,0.00,,,-99.99,0.000000,,2013-05-08 10:22:00,
2013-05-08 06:33:00,61.0,59.0,-100.00,WNW,301,1.0,-999.0,92,0.00,,,-99.99,0.000000,,2013-05-08 10:33:00,
2013-05-08 06:42:00,60.0,58.0,-100.00,NNE,32,1.0,-999.0,93,0.00,,,-99.99,0.100000,,2013-05-08 10:42:00,
2013-05-08 06:52:00,60.0,58.0,-100.00,NNE,32,1.0,-999.0,93,0.00,,,-99.99,0.100000,,2013-05-08 10:52:00,
2013-05-08 07:02:00,59.0,57.0,-100.00,East,100,1.0,-999.0,93,0.00,,,-99.99,2.800000,,2013-05-08 11:02:00,
2013-05-08 07:11:00,59.0,58.0,-100.00,SE,145,1.0,-999.0,94,0.00,,,-99.99,15.300000,,2013-05-08 11:11:00,
2013-05-08 07:22:00,59.0,58.0,-100.00,SE,145,1.0,-999.0,94,0.00,,,-99.99,15.300000,,2013-05-08 11:22:00,
2013-05-08 07:32:00,61.0,59.0,-100.00,South,189,1.0,-999.0,94,0.00,,,-99.99,55.400002,,2013-05-08 11:32:00,
2013-05-08 07:42:00,63.0,61.0,-100.00,South,187,1.0,-999.0,94,0.00,,,-99.99,107.500000,,2013-05-08 11:42:00,
2013-05-08 07:52:00,63.0,61.0,-100.00,South,187,1.0,-999.0,94,0.00,,,-99.99,107.500000,,2013-05-08 11:52:00,
2013-05-08 08:01:00,64.0,62.0,-100.00,SSW,195,1.0,-999.0,93,0.00,,,-99.99,155.199997,,2013-05-08 12:01:00,
2013-05-08 08:11:00,66.0,63.0,-100.00,SSW,209,1.0,-999.0,92,0.08,,,-99.99,201.899994,,2013-05-08 12:11:00,
2013-05-08 08:21:00,66.0,63.0,-100.00,SSW,209,1.0,-999.0,92,0.08,,,-99.99,201.899994,,2013-05-08 12:21:00,
2013-05-08 08:32:00,67.0,62.0,-100.00,WSW,241,2.0,-999.0,86,0.13,,,-99.99,267.200012,,2013-05-08 12:32:00,
2013-05-08 08:41:00,67.0,62.0,-100.00,SW,226,2.0,-999.0,83,0.00,,,-99.99,304.700012,,2013-05-08 12:41:00,
2013-05-08 08:52:00,67.0,62.0,-100.00,SW,226,2.0,-999.0,83,0.00,,,-99.99,304.700012,,2013-05-08 12:52:00,
2013-05-08 09:01:00,69.0,62.0,-100.00,SW,224,2.0,-999.0,80,0.00,,,-99.99,360.000000,,2013-05-08 13:01:00,
2013-05-08 09:12:00,70.0,62.0,-100.00,WSW,254,2.0,-999.0,78,0.00,,,-99.99,414.200012,,2013-05-08 13:12:00,
2013-05-08 09:21:00,70.0,62.0,-100.00,WSW,254,2.0,-999.0,78,0.00,,,-99.99,414.200012,,2013-05-08 13:21:00,
2013-05-08 09:32:00,70.0,61.0,-100.00,WNW,291,3.0,-999.0,72,0.00,,,-99.99,469.600006,,2013-05-08 13:32:00,
2013-05-08 09:42:00,70.0,61.0,-100.00,WNW,286,5.0,-999.0,70,0.00,,,-99.99,522.299988,,2013-05-08 13:42:00,
2013-05-08 09:52:00,70.0,61.0,-100.00,WNW,286,5.0,-999.0,70,0.00,,,-99.99,522.299988,,2013-05-08 13:52:00,
2013-05-08 10:02:00,71.0,61.0,-100.00,West,267,4.0,-999.0,69,0.00,,,-99.99,574.500000,,2013-05-08 14:02:00,
2013-05-08 10:11:00,72.0,60.0,-100.00,West,280,4.0,-999.0,66,0.00,,,-99.99,627.000000,,2013-05-08 14:11:00,
2013-05-08 10:21:00,72.0,60.0,-100.00,West,280,4.0,-999.0,66,0.00,,,-99.99,627.000000,,2013-05-08 14:21:00,
2013-05-08 10:32:00,72.0,59.0,-100.00,WNW,282,6.0,-999.0,62,0.00,,,-99.99,676.299988,,2013-05-08 14:32:00,
2013-05-08 10:42:00,73.0,59.0,-100.00,West,269,5.0,-999.0,61,0.00,,,-99.99,717.000000,,2013-05-08 14:42:00,
2013-05-08 10:52:00,73.0,59.0,-100.00,West,269,5.0,-999.0,61,0.00,,,-99.99,717.000000,,2013-05-08 14:52:00,
2013-05-08 11:02:00,74.0,58.0,-100.00,West,276,5.0,-999.0,58,0.00,,,-99.99,755.000000,,2013-05-08 15:02:00,
2013-05-08 11:11:00,74.0,58.0,-100.00,West,272,4.0,-999.0,56,0.00,,,-99.99,772.000000,,2013-05-08 15:11:00,
2013-05-08 11:21:00,74.0,58.0,-100.00,West,272,4.0,-999.0,56,0.00,,,-99.99,772.000000,,2013-05-08 15:21:00,
2013-05-08 11:33:00,75.0,57.0,-100.00,WNW,293,6.0,-999.0,53,0.00,,,-99.99,838.000000,,2013-05-08 15:33:00,
2013-05-08 11:42:00,76.0,57.0,-100.00,WSW,254,6.0,-999.0,52,0.00,,,-99.99,875.000000,,2013-05-08 15:42:00,
2013-05-08 11:53:00,76.0,57.0,-100.00,WSW,254,6.0,-999.0,52,0.00,,,-99.99,875.000000,,2013-05-08 15:53:00,
2013-05-08 12:03:00,76.0,57.0,-100.00,WNW,282,6.0,-999.0,52,0.00,,,-99.99,911.000000,,2013-05-08 16:03:00,
2013-05-08 12:12:00,76.0,57.0,-100.00,WNW,285,6.0,-999.0,52,0.00,,,-99.99,913.000000,,2013-05-08 16:12:00,
2013-05-08 12:23:00,76.0,57.0,-100.00,WNW,285,6.0,-999.0,52,0.00,,,-99.99,913.000000,,2013-05-08 16:23:00,
2013-05-08 12:33:00,77.0,58.0,-100.00,West,268,4.0,-999.0,51,0.00,,,-99.99,921.000000,,2013-05-08 16:33:00,
2013-05-08 12:42:00,77.0,57.0,-100.00,West,269,7.0,-999.0,49,0.00,,,-99.99,894.000000,,2013-05-08 16:42:00,
2013-05-08 12:52:00,77.0,57.0,-100.00,West,269,7.0,-999.0,49,0.00,,,-99.99,894.000000,,2013-05-08 16:52:00,
2013-05-08 13:02:00,78.0,57.0,-100.00,WSW,244,6.0,-999.0,48,0.00,,,-99.99,916.000000,,2013-05-08 17:02:00,
2013-05-08 13:12:00,78.0,57.0,-100.00,West,277,7.0,-999.0,47,0.00,,,-99.99,863.000000,,2013-05-08 17:12:00,
2013-05-08 13:22:00,78.0,57.0,-100.00,West,277,7.0,-999.0,47,0.00,,,-99.99,863.000000,,2013-05-08 17:22:00,
2013-05-08 13:32:00,78.0,57.0,-100.00,West,277,7.0,-999.0,47,0.00,,,-99.99,863.000000,,2013-05-08 17:32:00,
2013-05-08 13:41:00,78.0,57.0,-100.00,West,277,7.0,-999.0,47,0.00,,,-99.99,863.000000,,2013-05-08 17:41:00,
2013-05-08 13:52:00,80.0,56.0,-100.00,WSW,252,6.0,-999.0,44,0.00,,,-99.99,1071.000000,,2013-05-08 17:52:00,
2013-05-08 14:02:00,80.0,57.0,-100.00,SW,225,5.0,-999.0,44,0.00,,,-99.99,942.000000,,2013-05-08 18:02:00,
2013-05-08 14:12:00,79.0,56.0,-100.00,West,263,6.0,-999.0,44,0.00,,,-99.99,720.000000,,2013-05-08 18:12:00,
2013-05-08 14:21:00,79.0,56.0,-100.00,West,263,6.0,-999.0,44,0.00,,,-99.99,720.000000,,2013-05-08 18:21:00,
2013-05-08 14:32:00,80.0,56.0,-100.00,WSW,253,5.0,-999.0,43,0.00,,,-99.99,790.000000,,2013-05-08 18:32:00,
2013-05-08 14:42:00,81.0,56.0,-100.00,West,271,5.0,-999.0,42,0.00,,,-99.99,962.000000,,2013-05-08 18:42:00,
2013-05-08 14:52:00,81.0,56.0,-100.00,West,271,5.0,-999.0,42,0.00,,,-99.99,962.000000,,2013-05-08 18:52:00,
2013-05-08 15:01:00,81.0,56.0,-100.00,WSW,255,6.0,-999.0,42,0.00,,,-99.99,886.000000,,2013-05-08 19:01:00,
2013-05-08 15:11:00,82.0,57.0,-100.00,West,262,6.0,-999.0,41,0.00,,,-99.99,960.000000,,2013-05-08 19:11:00,
2013-05-08 15:22:00,82.0,57.0,-100.00,West,262,6.0,-999.0,41,0.00,,,-99.99,960.000000,,2013-05-08 19:22:00,
2013-05-08 15:32:00,82.0,57.0,-100.00,WSW,256,6.0,-999.0,42,0.00,,,-99.99,893.000000,,2013-05-08 19:32:00,
2013-05-08 15:42:00,82.0,57.0,-100.00,WNW,282,7.0,-999.0,42,0.00,,,-99.99,852.000000,,2013-05-08 19:42:00,
2013-05-08 15:52:00,82.0,57.0,-100.00,WNW,282,7.0,-999.0,42,0.00,,,-99.99,852.000000,,2013-05-08 19:52:00,
2013-05-08 16:02:00,81.0,57.0,-100.00,West,281,7.0,-999.0,44,0.00,,,-99.99,675.299988,,2013-05-08 20:02:00,
2013-05-08 16:11:00,81.0,57.0,-100.00,WSW,254,6.0,-999.0,43,0.00,,,-99.99,703.000000,,2013-05-08 20:11:00,
2013-05-08 16:22:00,81.0,57.0,-100.00,WSW,254,6.0,-999.0,43,0.00,,,-99.99,703.000000,,2013-05-08 20:22:00,
2013-05-08 16:32:00,81.0,57.0,-100.00,West,270,6.0,-999.0,43,0.00,,,-99.99,714.000000,,2013-05-08 20:32:00,
2013-05-08 16:42:00,81.0,57.0,-100.00,West,275,7.0,-999.0,43,0.00,,,-99.99,572.799988,,2013-05-08 20:42:00,
2013-05-08 16:52:00,81.0,57.0,-100.00,West,275,7.0,-999.0,43,0.00,,,-99.99,572.799988,,2013-05-08 20:52:00,
2013-05-08 17:01:00,81.0,58.0,-100.00,West,273,6.0,-999.0,44,0.00,,,-99.99,670.000000,,2013-05-08 21:01:00,
2013-05-08 17:12:00,81.0,58.0,-100.00,West,279,7.0,-999.0,45,0.00,,,-99.99,353.399994,,2013-05-08 21:12:00,
2013-05-08 17:21:00,81.0,58.0,-100.00,West,279,7.0,-999.0,45,0.00,,,-99.99,353.399994,,2013-05-08 21:21:00,
2013-05-08 17:33:00,81.0,59.0,-100.00,WNW,285,8.0,-999.0,46,0.00,,,-99.99,622.299988,,2013-05-08 21:33:00,
2013-05-08 17:43:00,81.0,58.0,-100.00,West,280,7.0,-999.0,46,0.00,,,-99.99,547.400024,,2013-05-08 21:43:00,
2013-05-08 17:53:00,81.0,58.0,-100.00,West,280,7.0,-999.0,46,0.00,,,-99.99,547.400024,,2013-05-08 21:53:00,
2013-05-08 18:03:00,81.0,59.0,-100.00,West,267,7.0,-999.0,46,0.00,,,-99.99,384.399994,,2013-05-08 22:03:00,
2013-05-08 18:12:00,80.0,59.0,-100.00,West,276,8.0,-999.0,48,0.00,,,-99.99,432.000000,,2013-05-08 22:12:00,
2013-05-08 18:22:00,80.0,59.0,-100.00,West,276,8.0,-999.0,48,0.00,,,-99.99,432.000000,,2013-05-08 22:22:00,
2013-05-08 18:33:00,80.0,59.0,-100.00,West,277,7.0,-999.0,48,0.00,,,-99.99,374.600006,,2013-05-08 22:33:00,
2013-05-08 18:42:00,80.0,59.0,-100.00,West,271,7.0,-999.0,49,0.00,,,-99.99,322.100006,,2013-05-08 22:42:00,
2013-05-08 18:53:00,80.0,59.0,-100.00,West,271,7.0,-999.0,49,0.00,,,-99.99,322.100006,,2013-05-08 22:53:00,
2013-05-08 19:01:00,79.0,59.0,-100.00,West,271,7.0,-999.0,51,0.00,,,-99.99,167.600006,,2013-05-08 23:01:00,
2013-05-08 19:12:00,78.0,59.0,-100.00,West,262,6.0,-999.0,53,0.00,,,-99.99,109.599998,,2013-05-08 23:12:00,
2013-05-08 19:22:00,78.0,59.0,-100.00,West,262,6.0,-999.0,53,0.00,,,-99.99,109.599998,,2013-05-08 23:22:00,
2013-05-08 19:32:00,77.0,59.0,-100.00,West,259,7.0,-999.0,53,0.00,,,-99.99,151.199997,,2013-05-08 23:32:00,
2013-05-08 19:42:00,77.0,58.0,-100.00,WNW,289,6.0,-999.0,52,0.00,,,-99.99,109.099998,,2013-05-08 23:42:00,
2013-05-08 19:52:00,77.0,58.0,-100.00,WNW,289,6.0,-999.0,52,0.00,,,-99.99,109.099998,,2013-05-08 23:52:00,
2013-05-08 20:02:00,76.0,58.0,-100.00,WNW,291,6.0,-999.0,53,0.00,,,-99.99,57.500000,,2013-05-09 00:02:00,
2013-05-08 20:12:00,75.0,58.0,-100.00,WNW,291,5.0,-999.0,55,0.00,,,-99.99,13.900000,,2013-05-09 00:12:00,
2013-05-08 20:21:00,75.0,58.0,-100.00,WNW,291,5.0,-999.0,55,0.00,,,-99.99,13.900000,,2013-05-09 00:21:00,
2013-05-08 20:32:00,74.0,58.0,-100.00,WNW,296,6.0,-999.0,58,0.00,,,-99.99,3.600000,,2013-05-09 00:32:00,
2013-05-08 20:42:00,73.0,59.0,-100.00,WNW,298,5.0,-999.0,60,0.00,,,-99.99,0.300000,,2013-05-09 00:42:00,
2013-05-08 20:52:00,73.0,59.0,-100.00,WNW,298,5.0,-999.0,60,0.00,,,-99.99,0.300000,,2013-05-09 00:52:00,
2013-05-08 21:01:00,72.0,59.0,-100.00,WNW,292,5.0,-999.0,62,0.00,,,-99.99,0.000000,,2013-05-09 01:01:00,
2013-05-08 21:12:00,72.0,59.0,-100.00,WNW,289,5.0,-999.0,62,0.00,,,-99.99,0.000000,,2013-05-09 01:12:00,
2013-05-08 21:22:00,72.0,59.0,-100.00,WNW,289,5.0,-999.0,62,0.00,,,-99.99,0.000000,,2013-05-09 01:22:00,
2013-05-08 21:32:00,71.0,59.0,-100.00,WNW,289,5.0,-999.0,64,0.00,,,-99.99,0.000000,,2013-05-09 01:32:00,
2013-05-08 21:42:00,71.0,59.0,-100.00,WNW,289,5.0,-999.0,66,0.00,,,-99.99,0.000000,,2013-05-09 01:42:00,
2013-05-08 21:52:00,71.0,59.0,-100.00,WNW,289,5.0,-999.0,66,0.00,,,-99.99,0.000000,,2013-05-09 01:52:00,
2013-05-08 22:02:00,70.0,59.0,-100.00,WNW,293,5.0,-999.0,68,0.00,,,-99.99,0.000000,,2013-05-09 02:02:00,
2013-05-08 22:12:00,69.0,59.0,-100.00,WNW,293,5.0,-999.0,70,0.00,,,-99.99,0.000000,,2013-05-09 02:12:00,
2013-05-08 22:22:00,69.0,59.0,-100.00,WNW,293,5.0,-999.0,70,0.00,,,-99.99,0.000000,,2013-05-09 02:22:00,
2013-05-08 22:32:00,69.0,60.0,-100.00,WNW,293,5.0,-999.0,72,0.00,,,-99.99,0.000000,,2013-05-09 02:32:00,
2013-05-08 22:42:00,69.0,60.0,-100.00,WNW,293,5.0,-999.0,72,0.00,,,-99.99,0.000000,,2013-05-09 02:42:00,
2013-05-08 22:52:00,69.0,60.0,-100.00,WNW,293,5.0,-999.0,72,0.00,,,-99.99,0.000000,,2013-05-09 02:52:00,
2013-05-08 23:01:00,68.0,60.0,-100.00,WNW,296,5.0,-999.0,74,0.00,,,-99.99,0.000000,,2013-05-09 03:01:00,
2013-05-08 23:11:00,68.0,60.0,-100.00,WNW,289,4.0,-999.0,76,0.00,,,-99.99,0.000000,,2013-05-09 03:11:00,
2013-05-08 23:21:00,68.0,60.0,-100.00,WNW,289,4.0,-999.0,76,0.00,,,-99.99,0.000000,,2013-05-09 03:21:00,
2013-05-08 23:33:00,67.0,60.0,-100.00,WNW,289,4.0,-999.0,78,0.00,,,-99.99,0.000000,,2013-05-09 03:33:00,
2013-05-08 23:43:00,67.0,60.0,-100.00,WNW,301,3.0,-999.0,79,0.00,,,-99.99,0.000000,,2013-05-09 03:43:00,
2013-05-08 23:53:00,67.0,60.0,-100.00,WNW,301,3.0,-999.0,79,0.00,,,-99.99,0.000000,,2013-05-09 03:53:00,